sensor_id;sensor_type;location;lat;lon;timestamp;temperature;humidity
68511;SHT31;55512;50.102;19.958;2023-12-14T00:01:15;4.88;83.40
68511;SHT31;55512;50.102;19.958;2023-12-14T00:03:41;4.90;83.39
68511;SHT31;55512;50.102;19.958;2023-12-14T00:06:09;4.92;83.40
68511;SHT31;55512;50.102;19.958;2023-12-14T00:08:38;4.92;83.31
68511;SHT31;55512;50.102;19.958;2023-12-14T00:11:04;4.87;83.20
68511;SHT31;55512;50.102;19.958;2023-12-14T00:13:34;4.84;83.20
68511;SHT31;55512;50.102;19.958;2023-12-14T00:16:01;4.81;83.22
68511;SHT31;55512;50.102;19.958;2023-12-14T00:18:27;4.80;83.27
68511;SHT31;55512;50.102;19.958;2023-12-14T00:20:52;4.80;83.30
68511;SHT31;55512;50.102;19.958;2023-12-14T00:23:19;4.81;83.31
68511;SHT31;55512;50.102;19.958;2023-12-14T00:25:48;4.84;83.38
68511;SHT31;55512;50.102;19.958;2023-12-14T00:28:14;4.86;83.31
68511;SHT31;55512;50.102;19.958;2023-12-14T00:30:40;4.88;83.31
68511;SHT31;55512;50.102;19.958;2023-12-14T00:33:05;4.91;83.30
68511;SHT31;55512;50.102;19.958;2023-12-14T00:35:31;4.93;83.30
68511;SHT31;55512;50.102;19.958;2023-12-14T00:37:56;4.95;83.30
68511;SHT31;55512;50.102;19.958;2023-12-14T00:40:22;4.95;83.24
68511;SHT31;55512;50.102;19.958;2023-12-14T00:42:47;4.94;83.20
68511;SHT31;55512;50.102;19.958;2023-12-14T00:45:13;4.91;83.19
68511;SHT31;55512;50.102;19.958;2023-12-14T00:47:38;4.90;83.20
68511;SHT31;55512;50.102;19.958;2023-12-14T00:50:04;4.88;83.15
68511;SHT31;55512;50.102;19.958;2023-12-14T00:52:30;4.84;83.12
68511;SHT31;55512;50.102;19.958;2023-12-14T00:54:56;4.81;83.10
68511;SHT31;55512;50.102;19.958;2023-12-14T00:57:21;4.78;83.10
68511;SHT31;55512;50.102;19.958;2023-12-14T00:59:47;4.76;83.12
68511;SHT31;55512;50.102;19.958;2023-12-14T01:02:12;4.74;83.19
68511;SHT31;55512;50.102;19.958;2023-12-14T01:04:38;4.73;83.20
68511;SHT31;55512;50.102;19.958;2023-12-14T01:07:04;4.75;83.23
68511;SHT31;55512;50.102;19.958;2023-12-14T01:09:29;4.76;83.30
68511;SHT31;55512;50.102;19.958;2023-12-14T01:11:55;4.75;83.23
68511;SHT31;55512;50.102;19.958;2023-12-14T01:14:21;4.75;83.22
68511;SHT31;55512;50.102;19.958;2023-12-14T01:16:46;4.77;83.23
68511;SHT31;55512;50.102;19.958;2023-12-14T01:19:12;4.78;83.26
68511;SHT31;55512;50.102;19.958;2023-12-14T01:21:37;4.80;83.25
68511;SHT31;55512;50.102;19.958;2023-12-14T01:24:03;4.80;83.29
68511;SHT31;55512;50.102;19.958;2023-12-14T01:26:29;4.83;83.29
68511;SHT31;55512;50.102;19.958;2023-12-14T01:28:54;4.82;83.25
68511;SHT31;55512;50.102;19.958;2023-12-14T01:31:20;4.84;83.20
68511;SHT31;55512;50.102;19.958;2023-12-14T01:33:48;4.83;83.21
68511;SHT31;55512;50.102;19.958;2023-12-14T01:36:20;4.85;83.23
68511;SHT31;55512;50.102;19.958;2023-12-14T01:38:47;4.86;83.21
68511;SHT31;55512;50.102;19.958;2023-12-14T01:41:13;4.88;83.23
68511;SHT31;55512;50.102;19.958;2023-12-14T01:43:39;4.89;83.20
68511;SHT31;55512;50.102;19.958;2023-12-14T01:46:05;4.88;83.20
68511;SHT31;55512;50.102;19.958;2023-12-14T01:48:30;4.89;83.20
68511;SHT31;55512;50.102;19.958;2023-12-14T01:50:56;4.88;83.20
68511;SHT31;55512;50.102;19.958;2023-12-14T01:53:21;4.89;83.20
68511;SHT31;55512;50.102;19.958;2023-12-14T01:55:47;4.87;83.20
68511;SHT31;55512;50.102;19.958;2023-12-14T01:58:12;4.87;83.20
68511;SHT31;55512;50.102;19.958;2023-12-14T02:03:19;4.86;83.20
68511;SHT31;55512;50.102;19.958;2023-12-14T02:05:44;4.85;83.20
68511;SHT31;55512;50.102;19.958;2023-12-14T02:08:10;4.81;83.21
68511;SHT31;55512;50.102;19.958;2023-12-14T02:10:35;4.81;83.24
68511;SHT31;55512;50.102;19.958;2023-12-14T02:13:01;4.83;83.30
68511;SHT31;55512;50.102;19.958;2023-12-14T02:15:28;4.84;83.31
68511;SHT31;55512;50.102;19.958;2023-12-14T02:17:53;4.85;83.36
68511;SHT31;55512;50.102;19.958;2023-12-14T02:20:19;4.86;83.40
68511;SHT31;55512;50.102;19.958;2023-12-14T02:22:48;4.89;83.39
68511;SHT31;55512;50.102;19.958;2023-12-14T02:25:18;4.89;83.39
68511;SHT31;55512;50.102;19.958;2023-12-14T02:27:44;4.89;83.34
68511;SHT31;55512;50.102;19.958;2023-12-14T02:30:11;4.89;83.36
68511;SHT31;55512;50.102;19.958;2023-12-14T02:32:37;4.88;83.40
68511;SHT31;55512;50.102;19.958;2023-12-14T02:35:06;4.90;83.38
68511;SHT31;55512;50.102;19.958;2023-12-14T02:37:33;4.90;83.39
68511;SHT31;55512;50.102;19.958;2023-12-14T02:40:03;4.89;83.33
68511;SHT31;55512;50.102;19.958;2023-12-14T02:42:30;4.90;83.33
68511;SHT31;55512;50.102;19.958;2023-12-14T02:44:56;4.93;83.40
68511;SHT31;55512;50.102;19.958;2023-12-14T02:47:22;4.96;83.39
68511;SHT31;55512;50.102;19.958;2023-12-14T02:49:47;4.99;83.34
68511;SHT31;55512;50.102;19.958;2023-12-14T02:52:13;5.02;83.30
68511;SHT31;55512;50.102;19.958;2023-12-14T02:54:39;5.03;83.30
68511;SHT31;55512;50.102;19.958;2023-12-14T02:57:05;5.06;83.27
68511;SHT31;55512;50.102;19.958;2023-12-14T02:59:31;5.07;83.22
68511;SHT31;55512;50.102;19.958;2023-12-14T03:01:57;5.05;83.20
68511;SHT31;55512;50.102;19.958;2023-12-14T03:04:22;5.05;83.20
68511;SHT31;55512;50.102;19.958;2023-12-14T03:06:48;5.03;83.11
68511;SHT31;55512;50.102;19.958;2023-12-14T03:09:13;5.00;83.12
68511;SHT31;55512;50.102;19.958;2023-12-14T03:11:39;5.02;83.20
68511;SHT31;55512;50.102;19.958;2023-12-14T03:14:04;5.03;83.21
68511;SHT31;55512;50.102;19.958;2023-12-14T03:16:30;5.01;83.19
68511;SHT31;55512;50.102;19.958;2023-12-14T03:18:55;4.97;83.11
68511;SHT31;55512;50.102;19.958;2023-12-14T03:21:22;4.91;83.13
68511;SHT31;55512;50.102;19.958;2023-12-14T03:23:48;4.85;83.17
68511;SHT31;55512;50.102;19.958;2023-12-14T03:26:15;4.86;83.28
68511;SHT31;55512;50.102;19.958;2023-12-14T03:28:41;4.88;83.39
68511;SHT31;55512;50.102;19.958;2023-12-14T03:31:06;4.91;83.39
68511;SHT31;55512;50.102;19.958;2023-12-14T03:33:34;4.94;83.45
68511;SHT31;55512;50.102;19.958;2023-12-14T03:35:59;4.95;83.42
68511;SHT31;55512;50.102;19.958;2023-12-14T03:38:25;4.95;83.41
68511;SHT31;55512;50.102;19.958;2023-12-14T03:40:50;4.95;83.38
68511;SHT31;55512;50.102;19.958;2023-12-14T03:43:16;4.94;83.40
68511;SHT31;55512;50.102;19.958;2023-12-14T03:45:41;4.93;83.38
68511;SHT31;55512;50.102;19.958;2023-12-14T03:48:07;4.95;83.40
68511;SHT31;55512;50.102;19.958;2023-12-14T03:50:32;4.95;83.42
68511;SHT31;55512;50.102;19.958;2023-12-14T03:52:58;4.99;83.48
68511;SHT31;55512;50.102;19.958;2023-12-14T03:55:24;5.02;83.43
68511;SHT31;55512;50.102;19.958;2023-12-14T03:57:50;5.05;83.45
68511;SHT31;55512;50.102;19.958;2023-12-14T04:00:15;5.08;83.42
68511;SHT31;55512;50.102;19.958;2023-12-14T04:02:41;5.12;83.43
68511;SHT31;55512;50.102;19.958;2023-12-14T04:05:07;5.14;83.40
68511;SHT31;55512;50.102;19.958;2023-12-14T04:07:36;5.17;83.38
68511;SHT31;55512;50.102;19.958;2023-12-14T04:10:14;5.18;83.30
68511;SHT31;55512;50.102;19.958;2023-12-14T04:12:40;5.20;83.30
68511;SHT31;55512;50.102;19.958;2023-12-14T04:15:07;5.21;83.30
68511;SHT31;55512;50.102;19.958;2023-12-14T04:17:34;5.23;83.30
68511;SHT31;55512;50.102;19.958;2023-12-14T04:20:00;5.25;83.30
68511;SHT31;55512;50.102;19.958;2023-12-14T04:22:28;5.26;83.29
68511;SHT31;55512;50.102;19.958;2023-12-14T04:24:54;5.24;83.20
68511;SHT31;55512;50.102;19.958;2023-12-14T04:27:20;5.25;83.20
68511;SHT31;55512;50.102;19.958;2023-12-14T04:29:45;5.25;83.23
68511;SHT31;55512;50.102;19.958;2023-12-14T04:32:11;5.26;83.29
68511;SHT31;55512;50.102;19.958;2023-12-14T04:34:36;5.27;83.25
68511;SHT31;55512;50.102;19.958;2023-12-14T04:37:02;5.23;83.14
68511;SHT31;55512;50.102;19.958;2023-12-14T04:39:27;5.16;83.07
68511;SHT31;55512;50.102;19.958;2023-12-14T04:41:53;5.12;83.10
68511;SHT31;55512;50.102;19.958;2023-12-14T04:44:19;5.05;83.02
68511;SHT31;55512;50.102;19.958;2023-12-14T04:46:46;4.98;83.01
68511;SHT31;55512;50.102;19.958;2023-12-14T04:49:12;4.94;83.10
68511;SHT31;55512;50.102;19.958;2023-12-14T04:51:38;4.91;83.14
68511;SHT31;55512;50.102;19.958;2023-12-14T04:54:03;4.89;83.20
68511;SHT31;55512;50.102;19.958;2023-12-14T04:56:29;4.87;83.29
68511;SHT31;55512;50.102;19.958;2023-12-14T04:58:54;4.89;83.34
68511;SHT31;55512;50.102;19.958;2023-12-14T05:01:20;4.90;83.40
68511;SHT31;55512;50.102;19.958;2023-12-14T05:03:46;4.93;83.50
68511;SHT31;55512;50.102;19.958;2023-12-14T05:06:11;4.92;83.46
68511;SHT31;55512;50.102;19.958;2023-12-14T05:08:37;4.86;83.40
68511;SHT31;55512;50.102;19.958;2023-12-14T05:11:02;4.81;83.40
68511;SHT31;55512;50.102;19.958;2023-12-14T05:13:28;4.80;83.45
68511;SHT31;55512;50.102;19.958;2023-12-14T05:15:54;4.83;83.58
68511;SHT31;55512;50.102;19.958;2023-12-14T05:18:20;4.83;83.60
68511;SHT31;55512;50.102;19.958;2023-12-14T05:20:45;4.84;83.63
68511;SHT31;55512;50.102;19.958;2023-12-14T05:23:14;4.87;83.70
68511;SHT31;55512;50.102;19.958;2023-12-14T05:25:39;4.90;83.72
68511;SHT31;55512;50.102;19.958;2023-12-14T05:28:05;4.86;83.71
68511;SHT31;55512;50.102;19.958;2023-12-14T05:30:30;4.82;83.66
68511;SHT31;55512;50.102;19.958;2023-12-14T05:32:56;4.77;83.61
68511;SHT31;55512;50.102;19.958;2023-12-14T05:35:21;4.76;83.69
68511;SHT31;55512;50.102;19.958;2023-12-14T05:37:47;4.78;83.72
68511;SHT31;55512;50.102;19.958;2023-12-14T05:40:13;4.80;83.78
68511;SHT31;55512;50.102;19.958;2023-12-14T05:42:39;4.80;83.80
68511;SHT31;55512;50.102;19.958;2023-12-14T05:45:05;4.80;83.79
68511;SHT31;55512;50.102;19.958;2023-12-14T05:47:31;4.77;83.76
68511;SHT31;55512;50.102;19.958;2023-12-14T05:49:59;4.73;83.76
68511;SHT31;55512;50.102;19.958;2023-12-14T05:52:24;4.71;83.80
68511;SHT31;55512;50.102;19.958;2023-12-14T05:54:50;4.69;83.83
68511;SHT31;55512;50.102;19.958;2023-12-14T05:57:15;4.67;83.84
68511;SHT31;55512;50.102;19.958;2023-12-14T05:59:41;4.64;83.89
68511;SHT31;55512;50.102;19.958;2023-12-14T06:02:06;4.61;83.90
68511;SHT31;55512;50.102;19.958;2023-12-14T06:04:32;4.56;83.91
68511;SHT31;55512;50.102;19.958;2023-12-14T06:06:58;4.54;83.98
68511;SHT31;55512;50.102;19.958;2023-12-14T06:09:23;4.53;84.01
68511;SHT31;55512;50.102;19.958;2023-12-14T06:11:57;4.53;84.09
68511;SHT31;55512;50.102;19.958;2023-12-14T06:14:22;4.55;84.11
68511;SHT31;55512;50.102;19.958;2023-12-14T06:16:48;4.56;84.16
68511;SHT31;55512;50.102;19.958;2023-12-14T06:19:13;4.61;84.20
68511;SHT31;55512;50.102;19.958;2023-12-14T06:21:38;4.64;84.22
68511;SHT31;55512;50.102;19.958;2023-12-14T06:24:05;4.65;84.21
68511;SHT31;55512;50.102;19.958;2023-12-14T06:26:31;4.67;84.20
68511;SHT31;55512;50.102;19.958;2023-12-14T06:28:56;4.70;84.20
68511;SHT31;55512;50.102;19.958;2023-12-14T06:31:22;4.73;84.22
68511;SHT31;55512;50.102;19.958;2023-12-14T06:33:48;4.77;84.27
68511;SHT31;55512;50.102;19.958;2023-12-14T06:36:15;4.81;84.29
68511;SHT31;55512;50.102;19.958;2023-12-14T06:38:44;4.85;84.30
68511;SHT31;55512;50.102;19.958;2023-12-14T06:41:20;4.87;84.29
68511;SHT31;55512;50.102;19.958;2023-12-14T06:43:47;4.90;84.27
68511;SHT31;55512;50.102;19.958;2023-12-14T06:46:14;4.92;84.26
68511;SHT31;55512;50.102;19.958;2023-12-14T06:48:40;4.94;84.22
68511;SHT31;55512;50.102;19.958;2023-12-14T06:51:06;4.94;84.21
68511;SHT31;55512;50.102;19.958;2023-12-14T06:53:31;4.92;84.13
68511;SHT31;55512;50.102;19.958;2023-12-14T06:55:57;4.92;84.10
68511;SHT31;55512;50.102;19.958;2023-12-14T06:58:22;4.94;84.10
68511;SHT31;55512;50.102;19.958;2023-12-14T07:00:48;4.94;84.10
68511;SHT31;55512;50.102;19.958;2023-12-14T07:03:13;4.96;84.10
68511;SHT31;55512;50.102;19.958;2023-12-14T07:05:39;4.99;84.10
68511;SHT31;55512;50.102;19.958;2023-12-14T07:08:04;5.01;84.10
68511;SHT31;55512;50.102;19.958;2023-12-14T07:10:30;5.05;84.10
68511;SHT31;55512;50.102;19.958;2023-12-14T07:12:56;5.07;84.08
68511;SHT31;55512;50.102;19.958;2023-12-14T07:15:22;5.07;84.02
68511;SHT31;55512;50.102;19.958;2023-12-14T07:17:47;5.05;83.99
68511;SHT31;55512;50.102;19.958;2023-12-14T07:20:12;5.09;83.70
68511;SHT31;55512;50.102;19.958;2023-12-14T07:22:40;5.05;83.48
68511;SHT31;55512;50.102;19.958;2023-12-14T07:25:07;5.01;83.53
68511;SHT31;55512;50.102;19.958;2023-12-14T07:27:33;5.03;83.41
68511;SHT31;55512;50.102;19.958;2023-12-14T07:29:59;5.04;83.37
68511;SHT31;55512;50.102;19.958;2023-12-14T07:32:25;5.02;83.32
68511;SHT31;55512;50.102;19.958;2023-12-14T07:34:52;4.97;83.43
68511;SHT31;55512;50.102;19.958;2023-12-14T07:37:17;4.99;83.37
68511;SHT31;55512;50.102;19.958;2023-12-14T07:39:43;5.00;83.38
68511;SHT31;55512;50.102;19.958;2023-12-14T07:42:08;4.97;83.25
68511;SHT31;55512;50.102;19.958;2023-12-14T07:44:34;4.97;83.22
68511;SHT31;55512;50.102;19.958;2023-12-14T07:47:00;4.92;83.24
68511;SHT31;55512;50.102;19.958;2023-12-14T07:49:27;4.93;83.21
68511;SHT31;55512;50.102;19.958;2023-12-14T07:51:53;4.97;83.26
68511;SHT31;55512;50.102;19.958;2023-12-14T07:54:18;5.04;83.30
68511;SHT31;55512;50.102;19.958;2023-12-14T07:56:44;5.08;83.31
68511;SHT31;55512;50.102;19.958;2023-12-14T07:59:10;5.14;83.36
68511;SHT31;55512;50.102;19.958;2023-12-14T08:01:36;5.19;83.40
68511;SHT31;55512;50.102;19.958;2023-12-14T08:04:02;5.25;83.40
68511;SHT31;55512;50.102;19.958;2023-12-14T08:06:28;5.30;83.40
68511;SHT31;55512;50.102;19.958;2023-12-14T08:08:54;5.35;83.40
68511;SHT31;55512;50.102;19.958;2023-12-14T08:11:23;5.38;83.37
68511;SHT31;55512;50.102;19.958;2023-12-14T08:13:49;5.39;83.27
68511;SHT31;55512;50.102;19.958;2023-12-14T08:16:14;5.41;83.20
68511;SHT31;55512;50.102;19.958;2023-12-14T08:18:42;5.41;83.13
68511;SHT31;55512;50.102;19.958;2023-12-14T08:21:09;5.36;83.00
68511;SHT31;55512;50.102;19.958;2023-12-14T08:23:35;5.33;82.90
68511;SHT31;55512;50.102;19.958;2023-12-14T08:26:01;5.30;82.84
68511;SHT31;55512;50.102;19.958;2023-12-14T08:28:26;5.24;82.69
68511;SHT31;55512;50.102;19.958;2023-12-14T08:30:52;5.17;82.63
68511;SHT31;55512;50.102;19.958;2023-12-14T08:33:17;5.17;82.70
68511;SHT31;55512;50.102;19.958;2023-12-14T08:35:43;5.17;82.70
68511;SHT31;55512;50.102;19.958;2023-12-14T08:38:09;5.14;82.70
68511;SHT31;55512;50.102;19.958;2023-12-14T08:40:36;5.16;82.74
68511;SHT31;55512;50.102;19.958;2023-12-14T08:43:02;5.17;82.77
68511;SHT31;55512;50.102;19.958;2023-12-14T08:45:28;5.21;82.80
68511;SHT31;55512;50.102;19.958;2023-12-14T08:47:54;5.25;82.89
68511;SHT31;55512;50.102;19.958;2023-12-14T08:50:20;5.28;82.84
68511;SHT31;55512;50.102;19.958;2023-12-14T08:52:46;5.19;82.94
68511;SHT31;55512;50.102;19.958;2023-12-14T08:55:12;5.22;83.02
68511;SHT31;55512;50.102;19.958;2023-12-14T08:57:38;5.25;83.03
68511;SHT31;55512;50.102;19.958;2023-12-14T09:00:04;5.25;83.00
68511;SHT31;55512;50.102;19.958;2023-12-14T09:02:34;5.31;82.80
68511;SHT31;55512;50.102;19.958;2023-12-14T09:05:01;5.38;82.70
68511;SHT31;55512;50.102;19.958;2023-12-14T09:07:26;5.44;82.75
68511;SHT31;55512;50.102;19.958;2023-12-14T09:09:52;5.45;82.87
68511;SHT31;55512;50.102;19.958;2023-12-14T09:12:17;5.49;82.92
68511;SHT31;55512;50.102;19.958;2023-12-14T09:14:43;5.56;82.73
68511;SHT31;55512;50.102;19.958;2023-12-14T09:17:08;5.59;82.68
68511;SHT31;55512;50.102;19.958;2023-12-14T09:19:34;5.62;82.60
68511;SHT31;55512;50.102;19.958;2023-12-14T09:21:59;5.61;82.44
68511;SHT31;55512;50.102;19.958;2023-12-14T09:24:25;5.59;82.31
68511;SHT31;55512;50.102;19.958;2023-12-14T09:26:50;5.62;82.36
68511;SHT31;55512;50.102;19.958;2023-12-14T09:29:16;5.61;82.26
68511;SHT31;55512;50.102;19.958;2023-12-14T09:31:42;5.58;82.08
68511;SHT31;55512;50.102;19.958;2023-12-14T09:34:11;5.52;81.94
68511;SHT31;55512;50.102;19.958;2023-12-14T09:36:38;5.49;81.96
68511;SHT31;55512;50.102;19.958;2023-12-14T09:39:04;5.51;82.00
68511;SHT31;55512;50.102;19.958;2023-12-14T09:41:30;5.55;82.06
68511;SHT31;55512;50.102;19.958;2023-12-14T09:43:56;5.65;82.18
68511;SHT31;55512;50.102;19.958;2023-12-14T09:46:23;5.71;82.20
68511;SHT31;55512;50.102;19.958;2023-12-14T09:48:52;5.76;82.18
68511;SHT31;55512;50.102;19.958;2023-12-14T09:51:19;5.82;82.20
68511;SHT31;55512;50.102;19.958;2023-12-14T09:53:45;5.87;82.20
68511;SHT31;55512;50.102;19.958;2023-12-14T09:56:11;5.91;82.16
68511;SHT31;55512;50.102;19.958;2023-12-14T09:58:36;5.94;82.07
68511;SHT31;55512;50.102;19.958;2023-12-14T10:01:02;5.96;81.94
68511;SHT31;55512;50.102;19.958;2023-12-14T10:03:29;5.99;81.94
68511;SHT31;55512;50.102;19.958;2023-12-14T10:05:57;6.02;81.97
68511;SHT31;55512;50.102;19.958;2023-12-14T10:08:26;6.06;81.97
68511;SHT31;55512;50.102;19.958;2023-12-14T10:10:55;6.09;81.95
68511;SHT31;55512;50.102;19.958;2023-12-14T10:13:21;6.10;81.88
68511;SHT31;55512;50.102;19.958;2023-12-14T10:16:02;6.11;81.71
68511;SHT31;55512;50.102;19.958;2023-12-14T10:18:27;6.10;81.63
68511;SHT31;55512;50.102;19.958;2023-12-14T10:20:54;6.14;81.71
68511;SHT31;55512;50.102;19.958;2023-12-14T10:23:20;6.20;81.80
68511;SHT31;55512;50.102;19.958;2023-12-14T10:25:46;6.22;81.68
68511;SHT31;55512;50.102;19.958;2023-12-14T10:28:13;6.23;81.55
68511;SHT31;55512;50.102;19.958;2023-12-14T10:30:39;6.22;81.40
68511;SHT31;55512;50.102;19.958;2023-12-14T10:33:30;6.22;81.40
68511;SHT31;55512;50.102;19.958;2023-12-14T10:35:56;6.26;81.40
68511;SHT31;55512;50.102;19.958;2023-12-14T10:38:27;6.30;81.49
68511;SHT31;55512;50.102;19.958;2023-12-14T10:40:54;6.35;81.47
68511;SHT31;55512;50.102;19.958;2023-12-14T10:43:22;6.37;81.30
68511;SHT31;55512;50.102;19.958;2023-12-14T10:45:49;6.29;81.06
68511;SHT31;55512;50.102;19.958;2023-12-14T10:48:17;6.19;80.94
68511;SHT31;55512;50.102;19.958;2023-12-14T10:50:45;6.15;80.97
68511;SHT31;55512;50.102;19.958;2023-12-14T10:53:13;6.13;81.08
68511;SHT31;55512;50.102;19.958;2023-12-14T10:55:43;6.14;81.10
68511;SHT31;55512;50.102;19.958;2023-12-14T10:58:10;6.18;81.21
68511;SHT31;55512;50.102;19.958;2023-12-14T11:00:37;6.21;81.24
68511;SHT31;55512;50.102;19.958;2023-12-14T11:03:05;6.25;81.20
68511;SHT31;55512;50.102;19.958;2023-12-14T11:05:34;6.27;81.26
68511;SHT31;55512;50.102;19.958;2023-12-14T11:08:04;6.31;81.28
68511;SHT31;55512;50.102;19.958;2023-12-14T11:13:12;6.34;81.20
68511;SHT31;55512;50.102;19.958;2023-12-14T11:15:39;6.33;81.17
68511;SHT31;55512;50.102;19.958;2023-12-14T11:23:12;6.35;81.09
68511;SHT31;55512;50.102;19.958;2023-12-14T11:25:39;6.39;81.18
68511;SHT31;55512;50.102;19.958;2023-12-14T11:28:07;6.42;81.09
68511;SHT31;55512;50.102;19.958;2023-12-14T11:30:35;6.43;81.06
68511;SHT31;55512;50.102;19.958;2023-12-14T11:33:02;6.43;80.99
68511;SHT31;55512;50.102;19.958;2023-12-14T11:35:29;6.43;80.97
68511;SHT31;55512;50.102;19.958;2023-12-14T11:37:55;6.42;80.91
68511;SHT31;55512;50.102;19.958;2023-12-14T11:40:24;6.41;80.86
68511;SHT31;55512;50.102;19.958;2023-12-14T11:43:00;6.39;80.80
68511;SHT31;55512;50.102;19.958;2023-12-14T11:45:31;6.36;80.71
68511;SHT31;55512;50.102;19.958;2023-12-14T11:47:57;6.37;80.77
68511;SHT31;55512;50.102;19.958;2023-12-14T11:50:22;6.38;80.80
68511;SHT31;55512;50.102;19.958;2023-12-14T11:52:48;6.34;80.94
68511;SHT31;55512;50.102;19.958;2023-12-14T11:55:14;6.30;81.10
68511;SHT31;55512;50.102;19.958;2023-12-14T11:57:47;6.36;81.02
68511;SHT31;55512;50.102;19.958;2023-12-14T12:00:15;6.44;80.90
68511;SHT31;55512;50.102;19.958;2023-12-14T12:02:42;6.47;80.85
68511;SHT31;55512;50.102;19.958;2023-12-14T12:05:07;6.48;80.76
68511;SHT31;55512;50.102;19.958;2023-12-14T12:07:33;6.48;80.70
68511;SHT31;55512;50.102;19.958;2023-12-14T12:09:59;6.48;80.64
68511;SHT31;55512;50.102;19.958;2023-12-14T12:12:25;6.48;80.69
68511;SHT31;55512;50.102;19.958;2023-12-14T12:14:50;6.48;80.68
68511;SHT31;55512;50.102;19.958;2023-12-14T12:17:17;6.51;80.70
68511;SHT31;55512;50.102;19.958;2023-12-14T12:19:45;6.53;80.71
68511;SHT31;55512;50.102;19.958;2023-12-14T12:22:11;6.52;80.83
68511;SHT31;55512;50.102;19.958;2023-12-14T12:24:36;6.57;80.73
68511;SHT31;55512;50.102;19.958;2023-12-14T12:27:02;6.59;80.68
68511;SHT31;55512;50.102;19.958;2023-12-14T12:29:29;6.59;80.64
68511;SHT31;55512;50.102;19.958;2023-12-14T12:31:55;6.63;80.66
68511;SHT31;55512;50.102;19.958;2023-12-14T12:34:21;6.65;80.60
68511;SHT31;55512;50.102;19.958;2023-12-14T12:36:47;6.68;80.60
68511;SHT31;55512;50.102;19.958;2023-12-14T12:39:12;6.68;80.53
68511;SHT31;55512;50.102;19.958;2023-12-14T12:41:38;6.69;80.49
68511;SHT31;55512;50.102;19.958;2023-12-14T12:44:04;6.69;80.43
68511;SHT31;55512;50.102;19.958;2023-12-14T12:46:31;6.69;80.45
68511;SHT31;55512;50.102;19.958;2023-12-14T12:48:59;6.70;80.37
68511;SHT31;55512;50.102;19.958;2023-12-14T12:51:25;6.68;80.30
68511;SHT31;55512;50.102;19.958;2023-12-14T12:53:52;6.67;80.31
68511;SHT31;55512;50.102;19.958;2023-12-14T12:56:18;6.66;80.38
68511;SHT31;55512;50.102;19.958;2023-12-14T12:58:44;6.66;80.38
68511;SHT31;55512;50.102;19.958;2023-12-14T13:01:09;6.66;80.32
68511;SHT31;55512;50.102;19.958;2023-12-14T13:03:35;6.65;80.38
68511;SHT31;55512;50.102;19.958;2023-12-14T13:06:00;6.64;80.38
68511;SHT31;55512;50.102;19.958;2023-12-14T13:08:26;6.60;80.34
68511;SHT31;55512;50.102;19.958;2023-12-14T13:10:51;6.57;80.40
68511;SHT31;55512;50.102;19.958;2023-12-14T13:13:18;6.56;80.43
68511;SHT31;55512;50.102;19.958;2023-12-14T13:15:44;6.57;80.49
68511;SHT31;55512;50.102;19.958;2023-12-14T13:18:09;6.59;80.48
68511;SHT31;55512;50.102;19.958;2023-12-14T13:20:34;6.61;80.43
68511;SHT31;55512;50.102;19.958;2023-12-14T13:23:00;6.63;80.40
68511;SHT31;55512;50.102;19.958;2023-12-14T13:25:27;6.63;80.34
68511;SHT31;55512;50.102;19.958;2023-12-14T13:27:53;6.62;80.30
68511;SHT31;55512;50.102;19.958;2023-12-14T13:30:19;6.63;80.29
68511;SHT31;55512;50.102;19.958;2023-12-14T13:32:47;6.61;80.22
68511;SHT31;55512;50.102;19.958;2023-12-14T13:35:13;6.61;80.20
68511;SHT31;55512;50.102;19.958;2023-12-14T13:37:39;6.59;80.19
68511;SHT31;55512;50.102;19.958;2023-12-14T13:40:04;6.59;80.20
68511;SHT31;55512;50.102;19.958;2023-12-14T13:42:31;6.59;80.20
68511;SHT31;55512;50.102;19.958;2023-12-14T13:44:57;6.54;80.37
68511;SHT31;55512;50.102;19.958;2023-12-14T13:47:22;6.49;80.50
68511;SHT31;55512;50.102;19.958;2023-12-14T13:49:48;6.51;80.45
68511;SHT31;55512;50.102;19.958;2023-12-14T13:52:14;6.48;80.48
68511;SHT31;55512;50.102;19.958;2023-12-14T13:54:39;6.44;80.51
68511;SHT31;55512;50.102;19.958;2023-12-14T13:57:05;6.45;80.44
68511;SHT31;55512;50.102;19.958;2023-12-14T13:59:30;6.39;80.49
68511;SHT31;55512;50.102;19.958;2023-12-14T14:01:55;6.43;80.32
68511;SHT31;55512;50.102;19.958;2023-12-14T14:04:21;6.42;80.29
68511;SHT31;55512;50.102;19.958;2023-12-14T14:06:46;6.41;80.29
68511;SHT31;55512;50.102;19.958;2023-12-14T14:09:12;6.40;80.30
68511;SHT31;55512;50.102;19.958;2023-12-14T14:11:38;6.38;80.30
68511;SHT31;55512;50.102;19.958;2023-12-14T14:14:06;6.37;80.30
68511;SHT31;55512;50.102;19.958;2023-12-14T14:16:31;6.37;80.32
68511;SHT31;55512;50.102;19.958;2023-12-14T14:18:57;6.36;80.35
68511;SHT31;55512;50.102;19.958;2023-12-14T14:21:23;6.35;80.38
68511;SHT31;55512;50.102;19.958;2023-12-14T14:23:49;6.32;80.41
68511;SHT31;55512;50.102;19.958;2023-12-14T14:26:15;6.25;80.67
68511;SHT31;55512;50.102;19.958;2023-12-14T14:28:40;6.22;80.69
68511;SHT31;55512;50.102;19.958;2023-12-14T14:31:06;6.22;80.68
68511;SHT31;55512;50.102;19.958;2023-12-14T14:33:31;6.20;80.70
68511;SHT31;55512;50.102;19.958;2023-12-14T14:35:57;6.19;80.68
68511;SHT31;55512;50.102;19.958;2023-12-14T14:38:23;6.21;80.62
68511;SHT31;55512;50.102;19.958;2023-12-14T14:40:49;6.14;80.80
68511;SHT31;55512;50.102;19.958;2023-12-14T14:43:14;6.16;80.80
68511;SHT31;55512;50.102;19.958;2023-12-14T14:45:40;6.22;80.70
68511;SHT31;55512;50.102;19.958;2023-12-14T14:48:05;6.23;80.65
68511;SHT31;55512;50.102;19.958;2023-12-14T14:50:33;6.23;80.70
68511;SHT31;55512;50.102;19.958;2023-12-14T14:53:02;6.22;80.70
68511;SHT31;55512;50.102;19.958;2023-12-14T14:55:28;6.20;80.72
68511;SHT31;55512;50.102;19.958;2023-12-14T14:57:55;6.20;80.80
68511;SHT31;55512;50.102;19.958;2023-12-14T15:00:20;6.20;80.85
68511;SHT31;55512;50.102;19.958;2023-12-14T15:02:47;6.22;80.90
68511;SHT31;55512;50.102;19.958;2023-12-14T15:05:12;6.22;80.90
68511;SHT31;55512;50.102;19.958;2023-12-14T15:07:38;6.22;80.90
68511;SHT31;55512;50.102;19.958;2023-12-14T15:10:03;6.22;80.98
68511;SHT31;55512;50.102;19.958;2023-12-14T15:12:31;6.23;81.00
68511;SHT31;55512;50.102;19.958;2023-12-14T15:14:57;6.23;81.00
68511;SHT31;55512;50.102;19.958;2023-12-14T15:17:22;6.24;81.00
68511;SHT31;55512;50.102;19.958;2023-12-14T15:19:48;6.25;81.02
68511;SHT31;55512;50.102;19.958;2023-12-14T15:22:14;6.27;81.04
68511;SHT31;55512;50.102;19.958;2023-12-14T15:24:41;6.27;81.01
68511;SHT31;55512;50.102;19.958;2023-12-14T15:27:07;6.26;81.00
68511;SHT31;55512;50.102;19.958;2023-12-14T15:29:33;6.24;81.06
68511;SHT31;55512;50.102;19.958;2023-12-14T15:31:58;6.16;81.21
68511;SHT31;55512;50.102;19.958;2023-12-14T15:34:23;6.17;81.24